sensor_id;sensor_type;location;lat;lon;timestamp;temperature;humidity
9033;DHT22;4551;53.164;8.210;2022-11-15T00:01:16;8.00;99.90
9033;DHT22;4551;53.164;8.210;2022-11-15T00:03:50;8.00;99.90
9033;DHT22;4551;53.164;8.210;2022-11-15T00:06:18;8.00;99.90
9033;DHT22;4551;53.164;8.210;2022-11-15T00:08:46;7.90;99.90
9033;DHT22;4551;53.164;8.210;2022-11-15T00:11:14;7.90;99.90
9033;DHT22;4551;53.164;8.210;2022-11-15T00:13:42;7.90;99.90
9033;DHT22;4551;53.164;8.210;2022-11-15T00:16:10;7.90;99.90
9033;DHT22;4551;53.164;8.210;2022-11-15T00:18:38;7.90;99.90
9033;DHT22;4551;53.164;8.210;2022-11-15T00:21:13;7.90;99.90
9033;DHT22;4551;53.164;8.210;2022-11-15T00:23:41;7.90;99.90
9033;DHT22;4551;53.164;8.210;2022-11-15T00:26:10;7.90;99.90
9033;DHT22;4551;53.164;8.210;2022-11-15T00:28:38;7.90;99.90
9033;DHT22;4551;53.164;8.210;2022-11-15T00:31:07;7.80;99.90
9033;DHT22;4551;53.164;8.210;2022-11-15T00:33:36;7.90;99.90
9033;DHT22;4551;53.164;8.210;2022-11-15T00:36:05;7.80;99.90
9033;DHT22;4551;53.164;8.210;2022-11-15T00:38:35;7.80;99.90
9033;DHT22;4551;53.164;8.210;2022-11-15T00:41:04;7.80;99.90
9033;DHT22;4551;53.164;8.210;2022-11-15T00:43:36;7.80;99.90
9033;DHT22;4551;53.164;8.210;2022-11-15T00:46:06;7.70;99.90
9033;DHT22;4551;53.164;8.210;2022-11-15T00:48:36;7.70;99.90
9033;DHT22;4551;53.164;8.210;2022-11-15T00:51:04;7.70;99.90
9033;DHT22;4551;53.164;8.210;2022-11-15T00:53:32;7.60;99.90
9033;DHT22;4551;53.164;8.210;2022-11-15T00:56:02;7.60;99.90
9033;DHT22;4551;53.164;8.210;2022-11-15T00:58:30;7.60;99.90
9033;DHT22;4551;53.164;8.210;2022-11-15T01:01:04;7.60;99.90
9033;DHT22;4551;53.164;8.210;2022-11-15T01:03:33;7.60;99.90
9033;DHT22;4551;53.164;8.210;2022-11-15T01:06:02;7.60;99.90
9033;DHT22;4551;53.164;8.210;2022-11-15T01:08:30;7.60;99.90
9033;DHT22;4551;53.164;8.210;2022-11-15T01:11:03;7.50;99.90
9033;DHT22;4551;53.164;8.210;2022-11-15T01:13:32;7.50;99.90
9033;DHT22;4551;53.164;8.210;2022-11-15T01:16:05;7.50;99.90
9033;DHT22;4551;53.164;8.210;2022-11-15T01:18:33;7.50;99.90
9033;DHT22;4551;53.164;8.210;2022-11-15T01:21:04;7.50;99.90
9033;DHT22;4551;53.164;8.210;2022-11-15T01:23:32;7.50;99.90
9033;DHT22;4551;53.164;8.210;2022-11-15T01:26:01;7.50;99.90
9033;DHT22;4551;53.164;8.210;2022-11-15T01:28:31;7.40;99.90
9033;DHT22;4551;53.164;8.210;2022-11-15T01:30:59;7.50;99.90
9033;DHT22;4551;53.164;8.210;2022-11-15T01:33:27;7.40;99.90
9033;DHT22;4551;53.164;8.210;2022-11-15T01:35:56;7.40;99.90
9033;DHT22;4551;53.164;8.210;2022-11-15T01:38:24;7.40;99.90
9033;DHT22;4551;53.164;8.210;2022-11-15T01:40:52;7.40;99.90
9033;DHT22;4551;53.164;8.210;2022-11-15T01:43:21;7.30;99.90
9033;DHT22;4551;53.164;8.210;2022-11-15T01:45:52;7.30;99.90
9033;DHT22;4551;53.164;8.210;2022-11-15T01:48:21;7.30;99.90
9033;DHT22;4551;53.164;8.210;2022-11-15T01:50:49;7.30;99.90
9033;DHT22;4551;53.164;8.210;2022-11-15T01:53:18;7.30;99.90
9033;DHT22;4551;53.164;8.210;2022-11-15T01:55:47;7.20;99.90
9033;DHT22;4551;53.164;8.210;2022-11-15T01:58:16;7.20;99.90
9033;DHT22;4551;53.164;8.210;2022-11-15T02:00:44;7.20;99.90
9033;DHT22;4551;53.164;8.210;2022-11-15T02:03:13;7.20;99.90
9033;DHT22;4551;53.164;8.210;2022-11-15T02:05:41;7.20;99.90
9033;DHT22;4551;53.164;8.210;2022-11-15T02:08:10;7.20;99.90
9033;DHT22;4551;53.164;8.210;2022-11-15T02:10:46;7.20;99.90
9033;DHT22;4551;53.164;8.210;2022-11-15T02:13:15;7.10;99.90
9033;DHT22;4551;53.164;8.210;2022-11-15T02:15:45;7.20;99.90
9033;DHT22;4551;53.164;8.210;2022-11-15T02:18:19;7.10;99.90
9033;DHT22;4551;53.164;8.210;2022-11-15T02:20:58;7.20;99.90
9033;DHT22;4551;53.164;8.210;2022-11-15T02:29:11;7.20;99.90
9033;DHT22;4551;53.164;8.210;2022-11-15T02:31:45;7.20;99.90
9033;DHT22;4551;53.164;8.210;2022-11-15T02:34:17;7.20;99.90
9033;DHT22;4551;53.164;8.210;2022-11-15T02:36:49;7.20;99.90
9033;DHT22;4551;53.164;8.210;2022-11-15T02:39:23;7.20;99.90
9033;DHT22;4551;53.164;8.210;2022-11-15T02:41:57;7.20;99.90
9033;DHT22;4551;53.164;8.210;2022-11-15T02:44:26;7.30;99.90
9033;DHT22;4551;53.164;8.210;2022-11-15T02:46:58;7.30;99.90
9033;DHT22;4551;53.164;8.210;2022-11-15T02:49:45;7.30;99.90
9033;DHT22;4551;53.164;8.210;2022-11-15T02:52:14;7.30;99.90
9033;DHT22;4551;53.164;8.210;2022-11-15T02:54:42;7.30;99.90
9033;DHT22;4551;53.164;8.210;2022-11-15T02:57:11;7.30;99.90
9033;DHT22;4551;53.164;8.210;2022-11-15T03:02:31;7.30;99.90
9033;DHT22;4551;53.164;8.210;2022-11-15T03:05:04;7.40;99.90
9033;DHT22;4551;53.164;8.210;2022-11-15T03:07:37;7.40;99.90
9033;DHT22;4551;53.164;8.210;2022-11-15T03:10:08;7.40;99.90
9033;DHT22;4551;53.164;8.210;2022-11-15T03:12:41;7.40;99.90
9033;DHT22;4551;53.164;8.210;2022-11-15T03:15:12;7.40;99.90
9033;DHT22;4551;53.164;8.210;2022-11-15T03:17:45;7.50;99.90
9033;DHT22;4551;53.164;8.210;2022-11-15T03:20:16;7.50;99.90
9033;DHT22;4551;53.164;8.210;2022-11-15T03:22:45;7.50;99.90
9033;DHT22;4551;53.164;8.210;2022-11-15T03:25:16;7.60;99.90
9033;DHT22;4551;53.164;8.210;2022-11-15T03:27:46;7.90;99.90
9033;DHT22;4551;53.164;8.210;2022-11-15T03:30:16;7.60;99.90
9033;DHT22;4551;53.164;8.210;2022-11-15T03:32:46;7.60;99.90
9033;DHT22;4551;53.164;8.210;2022-11-15T03:35:15;7.70;99.90
9033;DHT22;4551;53.164;8.210;2022-11-15T03:37:45;7.70;99.90
9033;DHT22;4551;53.164;8.210;2022-11-15T03:40:29;7.70;99.90
9033;DHT22;4551;53.164;8.210;2022-11-15T03:43:00;7.70;99.90
9033;DHT22;4551;53.164;8.210;2022-11-15T03:45:31;7.80;99.90
9033;DHT22;4551;53.164;8.210;2022-11-15T03:48:01;7.80;99.90
9033;DHT22;4551;53.164;8.210;2022-11-15T03:50:30;7.80;99.90
9033;DHT22;4551;53.164;8.210;2022-11-15T03:52:59;7.90;99.90
9033;DHT22;4551;53.164;8.210;2022-11-15T03:55:28;7.90;99.90
9033;DHT22;4551;53.164;8.210;2022-11-15T03:57:57;7.90;99.90
9033;DHT22;4551;53.164;8.210;2022-11-15T04:00:25;7.90;99.90
9033;DHT22;4551;53.164;8.210;2022-11-15T04:02:53;7.90;99.90
9033;DHT22;4551;53.164;8.210;2022-11-15T04:05:23;8.00;99.90
9033;DHT22;4551;53.164;8.210;2022-11-15T04:07:51;8.00;99.90
9033;DHT22;4551;53.164;8.210;2022-11-15T04:10:19;8.00;99.90
9033;DHT22;4551;53.164;8.210;2022-11-15T04:12:47;8.10;99.90
9033;DHT22;4551;53.164;8.210;2022-11-15T04:15:16;8.10;99.90
9033;DHT22;4551;53.164;8.210;2022-11-15T04:17:45;8.10;99.90
9033;DHT22;4551;53.164;8.210;2022-11-15T04:20:14;8.10;99.90
9033;DHT22;4551;53.164;8.210;2022-11-15T04:23:01;8.10;99.90
9033;DHT22;4551;53.164;8.210;2022-11-15T04:25:47;8.20;99.90
9033;DHT22;4551;53.164;8.210;2022-11-15T04:28:17;8.20;99.90
9033;DHT22;4551;53.164;8.210;2022-11-15T04:30:45;8.20;99.90
9033;DHT22;4551;53.164;8.210;2022-11-15T04:33:13;8.20;99.90
9033;DHT22;4551;53.164;8.210;2022-11-15T04:35:41;8.30;99.90
9033;DHT22;4551;53.164;8.210;2022-11-15T04:38:11;8.30;99.90
9033;DHT22;4551;53.164;8.210;2022-11-15T04:40:38;8.30;99.90
9033;DHT22;4551;53.164;8.210;2022-11-15T04:43:06;8.30;99.90
9033;DHT22;4551;53.164;8.210;2022-11-15T04:45:34;8.30;99.90
9033;DHT22;4551;53.164;8.210;2022-11-15T04:48:02;8.40;99.90
9033;DHT22;4551;53.164;8.210;2022-11-15T04:50:30;8.40;99.90
9033;DHT22;4551;53.164;8.210;2022-11-15T04:52:58;8.40;99.90
9033;DHT22;4551;53.164;8.210;2022-11-15T04:55:28;8.40;99.90
9033;DHT22;4551;53.164;8.210;2022-11-15T04:57:59;8.50;99.90
9033;DHT22;4551;53.164;8.210;2022-11-15T05:00:27;8.50;99.90
9033;DHT22;4551;53.164;8.210;2022-11-15T05:02:56;8.10;99.90
9033;DHT22;4551;53.164;8.210;2022-11-15T05:05:41;8.60;99.90
9033;DHT22;4551;53.164;8.210;2022-11-15T05:08:09;8.60;99.90
9033;DHT22;4551;53.164;8.210;2022-11-15T05:10:39;8.60;99.90
9033;DHT22;4551;53.164;8.210;2022-11-15T05:13:07;8.60;99.90
9033;DHT22;4551;53.164;8.210;2022-11-15T05:15:35;8.60;99.90
9033;DHT22;4551;53.164;8.210;2022-11-15T05:18:03;8.70;99.90
9033;DHT22;4551;53.164;8.210;2022-11-15T05:20:31;8.70;99.90
9033;DHT22;4551;53.164;8.210;2022-11-15T05:22:59;8.80;99.90
9033;DHT22;4551;53.164;8.210;2022-11-15T05:25:27;8.80;99.90
9033;DHT22;4551;53.164;8.210;2022-11-15T05:27:57;8.80;99.90
9033;DHT22;4551;53.164;8.210;2022-11-15T05:30:25;8.90;99.90
9033;DHT22;4551;53.164;8.210;2022-11-15T05:32:53;8.90;99.90
9033;DHT22;4551;53.164;8.210;2022-11-15T05:35:22;8.90;99.90
9033;DHT22;4551;53.164;8.210;2022-11-15T05:37:54;9.00;99.90
9033;DHT22;4551;53.164;8.210;2022-11-15T05:40:23;9.00;99.90
9033;DHT22;4551;53.164;8.210;2022-11-15T05:42:51;9.00;99.90
9033;DHT22;4551;53.164;8.210;2022-11-15T05:45:38;9.00;99.90
9033;DHT22;4551;53.164;8.210;2022-11-15T05:48:06;9.10;99.90
9033;DHT22;4551;53.164;8.210;2022-11-15T05:50:36;9.10;99.90
9033;DHT22;4551;53.164;8.210;2022-11-15T05:53:04;9.10;99.90
9033;DHT22;4551;53.164;8.210;2022-11-15T05:55:33;9.10;99.90
9033;DHT22;4551;53.164;8.210;2022-11-15T05:58:01;9.20;99.90
9033;DHT22;4551;53.164;8.210;2022-11-15T06:00:29;9.20;99.90
9033;DHT22;4551;53.164;8.210;2022-11-15T06:02:59;9.20;99.90
9033;DHT22;4551;53.164;8.210;2022-11-15T06:05:27;9.20;99.90
9033;DHT22;4551;53.164;8.210;2022-11-15T06:07:57;9.30;99.90
9033;DHT22;4551;53.164;8.210;2022-11-15T06:10:25;9.30;99.90
9033;DHT22;4551;53.164;8.210;2022-11-15T06:12:56;9.30;99.90
9033;DHT22;4551;53.164;8.210;2022-11-15T06:15:24;9.30;99.90
9033;DHT22;4551;53.164;8.210;2022-11-15T06:17:53;9.40;99.90
9033;DHT22;4551;53.164;8.210;2022-11-15T06:20:25;9.40;99.90
9033;DHT22;4551;53.164;8.210;2022-11-15T06:22:56;9.40;99.90
9033;DHT22;4551;53.164;8.210;2022-11-15T06:25:24;9.40;99.90
9033;DHT22;4551;53.164;8.210;2022-11-15T06:27:52;9.40;99.90
9033;DHT22;4551;53.164;8.210;2022-11-15T06:30:20;9.50;99.90
9033;DHT22;4551;53.164;8.210;2022-11-15T06:32:49;9.50;99.90
9033;DHT22;4551;53.164;8.210;2022-11-15T06:35:17;9.50;99.90
9033;DHT22;4551;53.164;8.210;2022-11-15T06:37:47;9.60;99.90
9033;DHT22;4551;53.164;8.210;2022-11-15T06:40:15;9.60;99.90
9033;DHT22;4551;53.164;8.210;2022-11-15T06:42:43;9.60;99.90
9033;DHT22;4551;53.164;8.210;2022-11-15T06:45:11;9.60;99.90
9033;DHT22;4551;53.164;8.210;2022-11-15T06:47:43;9.70;99.90
9033;DHT22;4551;53.164;8.210;2022-11-15T06:50:11;9.70;99.90
9033;DHT22;4551;53.164;8.210;2022-11-15T06:52:39;9.70;99.90
9033;DHT22;4551;53.164;8.210;2022-11-15T06:55:09;9.70;99.90
9033;DHT22;4551;53.164;8.210;2022-11-15T06:57:43;9.80;99.90
9033;DHT22;4551;53.164;8.210;2022-11-15T07:00:14;9.80;99.90
9033;DHT22;4551;53.164;8.210;2022-11-15T07:02:42;9.80;99.90
9033;DHT22;4551;53.164;8.210;2022-11-15T07:05:10;9.90;99.90
9033;DHT22;4551;53.164;8.210;2022-11-15T07:08:07;9.90;99.90
9033;DHT22;4551;53.164;8.210;2022-11-15T07:10:39;10.00;99.90
9033;DHT22;4551;53.164;8.210;2022-11-15T07:13:07;10.00;99.90
9033;DHT22;4551;53.164;8.210;2022-11-15T07:15:35;10.00;99.90
9033;DHT22;4551;53.164;8.210;2022-11-15T07:18:03;10.00;99.90
9033;DHT22;4551;53.164;8.210;2022-11-15T07:20:33;10.00;99.90
9033;DHT22;4551;53.164;8.210;2022-11-15T07:23:02;10.10;99.90
9033;DHT22;4551;53.164;8.210;2022-11-15T07:25:30;10.10;99.90
9033;DHT22;4551;53.164;8.210;2022-11-15T07:28:00;10.10;99.90
9033;DHT22;4551;53.164;8.210;2022-11-15T07:30:28;10.10;99.90
9033;DHT22;4551;53.164;8.210;2022-11-15T07:32:57;10.10;99.90
9033;DHT22;4551;53.164;8.210;2022-11-15T07:35:26;10.20;99.90
9033;DHT22;4551;53.164;8.210;2022-11-15T07:37:55;10.20;99.90
9033;DHT22;4551;53.164;8.210;2022-11-15T07:40:23;10.20;99.90
9033;DHT22;4551;53.164;8.210;2022-11-15T07:42:51;10.20;99.90
9033;DHT22;4551;53.164;8.210;2022-11-15T07:45:25;10.30;99.90
9033;DHT22;4551;53.164;8.210;2022-11-15T07:47:53;10.30;99.90
9033;DHT22;4551;53.164;8.210;2022-11-15T07:50:22;10.30;99.90
9033;DHT22;4551;53.164;8.210;2022-11-15T07:52:54;10.30;99.90
9033;DHT22;4551;53.164;8.210;2022-11-15T07:55:23;10.30;99.90
9033;DHT22;4551;53.164;8.210;2022-11-15T07:57:51;10.40;99.90
9033;DHT22;4551;53.164;8.210;2022-11-15T08:00:19;10.40;99.90
9033;DHT22;4551;53.164;8.210;2022-11-15T08:02:48;10.40;99.90
9033;DHT22;4551;53.164;8.210;2022-11-15T08:05:17;10.40;99.90
9033;DHT22;4551;53.164;8.210;2022-11-15T08:08:11;10.40;99.90
9033;DHT22;4551;53.164;8.210;2022-11-15T08:10:39;10.40;99.90
9033;DHT22;4551;53.164;8.210;2022-11-15T08:13:08;10.50;99.90
9033;DHT22;4551;53.164;8.210;2022-11-15T08:15:36;10.50;99.90
9033;DHT22;4551;53.164;8.210;2022-11-15T08:18:08;10.40;99.90
9033;DHT22;4551;53.164;8.210;2022-11-15T08:20:38;10.50;99.90
9033;DHT22;4551;53.164;8.210;2022-11-15T08:23:06;10.50;99.90
9033;DHT22;4551;53.164;8.210;2022-11-15T08:25:34;10.60;99.90
9033;DHT22;4551;53.164;8.210;2022-11-15T08:28:03;10.60;99.90
9033;DHT22;4551;53.164;8.210;2022-11-15T08:30:34;10.60;99.90
9033;DHT22;4551;53.164;8.210;2022-11-15T08:33:11;10.60;99.90
9033;DHT22;4551;53.164;8.210;2022-11-15T08:35:39;10.60;99.90
9033;DHT22;4551;53.164;8.210;2022-11-15T08:38:08;10.70;99.90
9033;DHT22;4551;53.164;8.210;2022-11-15T08:40:36;10.70;99.90
9033;DHT22;4551;53.164;8.210;2022-11-15T08:43:04;10.70;99.90
9033;DHT22;4551;53.164;8.210;2022-11-15T08:45:33;10.70;99.90
9033;DHT22;4551;53.164;8.210;2022-11-15T08:48:02;10.80;99.90
9033;DHT22;4551;53.164;8.210;2022-11-15T08:50:31;10.80;99.90
9033;DHT22;4551;53.164;8.210;2022-11-15T08:53:03;10.80;99.90
9033;DHT22;4551;53.164;8.210;2022-11-15T08:55:31;10.80;99.90
9033;DHT22;4551;53.164;8.210;2022-11-15T08:58:00;10.80;99.90
9033;DHT22;4551;53.164;8.210;2022-11-15T09:00:28;10.80;99.90
9033;DHT22;4551;53.164;8.210;2022-11-15T09:02:56;10.90;99.90
9033;DHT22;4551;53.164;8.210;2022-11-15T09:05:24;10.90;99.90
9033;DHT22;4551;53.164;8.210;2022-11-15T09:07:53;10.90;99.90
9033;DHT22;4551;53.164;8.210;2022-11-15T09:10:22;10.90;99.90
9033;DHT22;4551;53.164;8.210;2022-11-15T09:12:50;10.90;99.90
9033;DHT22;4551;53.164;8.210;2022-11-15T09:15:19;11.00;99.90
9033;DHT22;4551;53.164;8.210;2022-11-15T09:17:47;11.00;99.90
9033;DHT22;4551;53.164;8.210;2022-11-15T09:20:16;11.00;99.90
9033;DHT22;4551;53.164;8.210;2022-11-15T09:22:44;11.00;99.90
9033;DHT22;4551;53.164;8.210;2022-11-15T09:25:13;11.00;99.90
9033;DHT22;4551;53.164;8.210;2022-11-15T09:27:41;11.00;99.90
9033;DHT22;4551;53.164;8.210;2022-11-15T09:30:09;11.10;99.90
9033;DHT22;4551;53.164;8.210;2022-11-15T09:32:38;11.10;99.90
9033;DHT22;4551;53.164;8.210;2022-11-15T09:35:06;11.10;99.90
9033;DHT22;4551;53.164;8.210;2022-11-15T09:37:34;11.10;99.90
9033;DHT22;4551;53.164;8.210;2022-11-15T09:40:02;11.20;99.90
9033;DHT22;4551;53.164;8.210;2022-11-15T09:42:36;11.20;99.90
9033;DHT22;4551;53.164;8.210;2022-11-15T09:45:10;11.20;99.90
9033;DHT22;4551;53.164;8.210;2022-11-15T09:47:46;11.30;99.90
9033;DHT22;4551;53.164;8.210;2022-11-15T09:50:19;11.30;99.90
9033;DHT22;4551;53.164;8.210;2022-11-15T09:52:49;11.30;99.90
9033;DHT22;4551;53.164;8.210;2022-11-15T09:55:18;11.30;99.90
9033;DHT22;4551;53.164;8.210;2022-11-15T09:57:50;11.40;99.90
9033;DHT22;4551;53.164;8.210;2022-11-15T10:00:41;11.40;99.90
9033;DHT22;4551;53.164;8.210;2022-11-15T10:03:14;11.40;99.90
9033;DHT22;4551;53.164;8.210;2022-11-15T10:05:46;11.40;99.90
9033;DHT22;4551;53.164;8.210;2022-11-15T10:08:24;11.50;99.90
9033;DHT22;4551;53.164;8.210;2022-11-15T10:10:54;11.50;99.90
9033;DHT22;4551;53.164;8.210;2022-11-15T10:13:45;11.60;99.90
9033;DHT22;4551;53.164;8.210;2022-11-15T10:16:19;11.60;99.90
9033;DHT22;4551;53.164;8.210;2022-11-15T10:18:52;11.70;99.90
9033;DHT22;4551;53.164;8.210;2022-11-15T10:21:25;11.70;99.90
9033;DHT22;4551;53.164;8.210;2022-11-15T10:23:55;11.80;99.90
9033;DHT22;4551;53.164;8.210;2022-11-15T10:26:23;11.80;99.90
9033;DHT22;4551;53.164;8.210;2022-11-15T10:28:53;11.90;99.90
9033;DHT22;4551;53.164;8.210;2022-11-15T10:31:21;11.90;99.90
9033;DHT22;4551;53.164;8.210;2022-11-15T10:33:50;12.00;99.90
9033;DHT22;4551;53.164;8.210;2022-11-15T10:36:22;12.00;99.90
9033;DHT22;4551;53.164;8.210;2022-11-15T10:38:53;12.10;99.90
9033;DHT22;4551;53.164;8.210;2022-11-15T10:41:22;12.10;99.90
9033;DHT22;4551;53.164;8.210;2022-11-15T10:44:02;12.10;99.90
9033;DHT22;4551;53.164;8.210;2022-11-15T10:46:31;12.20;99.90
9033;DHT22;4551;53.164;8.210;2022-11-15T10:49:12;12.20;99.90
9033;DHT22;4551;53.164;8.210;2022-11-15T10:51:42;12.20;99.90
9033;DHT22;4551;53.164;8.210;2022-11-15T10:54:10;12.30;99.90
9033;DHT22;4551;53.164;8.210;2022-11-15T10:56:48;12.30;99.90
9033;DHT22;4551;53.164;8.210;2022-11-15T10:59:21;12.30;99.90
9033;DHT22;4551;53.164;8.210;2022-11-15T11:01:50;12.30;99.90
9033;DHT22;4551;53.164;8.210;2022-11-15T11:04:18;12.40;99.90
9033;DHT22;4551;53.164;8.210;2022-11-15T11:06:47;12.40;99.90
9033;DHT22;4551;53.164;8.210;2022-11-15T11:09:23;12.40;99.90
9033;DHT22;4551;53.164;8.210;2022-11-15T11:11:53;12.50;99.90
9033;DHT22;4551;53.164;8.210;2022-11-15T11:14:23;12.50;99.90
9033;DHT22;4551;53.164;8.210;2022-11-15T11:16:54;12.50;99.90
9033;DHT22;4551;53.164;8.210;2022-11-15T11:19:35;12.60;99.90
9033;DHT22;4551;53.164;8.210;2022-11-15T11:22:09;12.60;99.90
9033;DHT22;4551;53.164;8.210;2022-11-15T11:24:42;12.70;99.90
9033;DHT22;4551;53.164;8.210;2022-11-15T11:27:20;12.70;99.90
9033;DHT22;4551;53.164;8.210;2022-11-15T11:29:55;12.80;99.90
9033;DHT22;4551;53.164;8.210;2022-11-15T11:32:32;12.80;99.90
9033;DHT22;4551;53.164;8.210;2022-11-15T11:35:05;12.80;99.90
9033;DHT22;4551;53.164;8.210;2022-11-15T11:37:36;12.90;99.90
9033;DHT22;4551;53.164;8.210;2022-11-15T11:40:13;12.90;99.90
9033;DHT22;4551;53.164;8.210;2022-11-15T11:42:54;12.90;99.90
9033;DHT22;4551;53.164;8.210;2022-11-15T11:45:31;12.90;99.90
9033;DHT22;4551;53.164;8.210;2022-11-15T11:48:03;13.00;99.90
9033;DHT22;4551;53.164;8.210;2022-11-15T11:50:36;13.00;99.90
9033;DHT22;4551;53.164;8.210;2022-11-15T11:53:09;13.00;99.90
9033;DHT22;4551;53.164;8.210;2022-11-15T11:55:40;13.10;99.90
9033;DHT22;4551;53.164;8.210;2022-11-15T11:58:11;13.10;99.90
9033;DHT22;4551;53.164;8.210;2022-11-15T12:00:45;13.20;99.90
9033;DHT22;4551;53.164;8.210;2022-11-15T12:03:18;13.20;99.90
9033;DHT22;4551;53.164;8.210;2022-11-15T12:05:49;13.30;99.90
9033;DHT22;4551;53.164;8.210;2022-11-15T12:11:07;13.40;99.90
9033;DHT22;4551;53.164;8.210;2022-11-15T12:13:36;13.40;99.90
9033;DHT22;4551;53.164;8.210;2022-11-15T12:16:08;13.40;99.90
9033;DHT22;4551;53.164;8.210;2022-11-15T12:18:39;13.40;99.90
9033;DHT22;4551;53.164;8.210;2022-11-15T12:21:13;13.50;99.90
9033;DHT22;4551;53.164;8.210;2022-11-15T12:23:43;13.70;99.90
9033;DHT22;4551;53.164;8.210;2022-11-15T12:26:15;13.80;99.90
9033;DHT22;4551;53.164;8.210;2022-11-15T12:28:45;13.80;99.90
9033;DHT22;4551;53.164;8.210;2022-11-15T12:31:35;13.80;99.90
9033;DHT22;4551;53.164;8.210;2022-11-15T12:34:05;13.90;99.90
9033;DHT22;4551;53.164;8.210;2022-11-15T12:36:41;13.90;99.90
9033;DHT22;4551;53.164;8.210;2022-11-15T12:39:11;13.90;99.90
9033;DHT22;4551;53.164;8.210;2022-11-15T12:41:39;14.10;99.90
9033;DHT22;4551;53.164;8.210;2022-11-15T12:44:10;14.50;99.90
9033;DHT22;4551;53.164;8.210;2022-11-15T12:49:44;15.30;99.90
9033;DHT22;4551;53.164;8.210;2022-11-15T12:52:13;15.50;99.90
9033;DHT22;4551;53.164;8.210;2022-11-15T12:57:38;16.00;99.90
9033;DHT22;4551;53.164;8.210;2022-11-15T13:03:12;16.40;99.90
9033;DHT22;4551;53.164;8.210;2022-11-15T13:05:53;16.60;99.90
9033;DHT22;4551;53.164;8.210;2022-11-15T13:08:36;16.90;99.90
9033;DHT22;4551;53.164;8.210;2022-11-15T13:13:47;17.30;99.90
9033;DHT22;4551;53.164;8.210;2022-11-15T13:16:17;17.30;99.90
9033;DHT22;4551;53.164;8.210;2022-11-15T13:18:52;17.10;99.90
9033;DHT22;4551;53.164;8.210;2022-11-15T13:21:23;17.00;99.90
9033;DHT22;4551;53.164;8.210;2022-11-15T13:24:13;17.00;99.90
9033;DHT22;4551;53.164;8.210;2022-11-15T13:26:41;16.80;99.90
9033;DHT22;4551;53.164;8.210;2022-11-15T13:29:14;16.60;99.90
9033;DHT22;4551;53.164;8.210;2022-11-15T13:31:43;16.50;99.90
9033;DHT22;4551;53.164;8.210;2022-11-15T13:37:30;16.90;99.90
9033;DHT22;4551;53.164;8.210;2022-11-15T13:40:10;17.20;99.90
9033;DHT22;4551;53.164;8.210;2022-11-15T13:42:38;17.40;99.90
9033;DHT22;4551;53.164;8.210;2022-11-15T13:45:12;17.70;99.90
9033;DHT22;4551;53.164;8.210;2022-11-15T13:47:41;17.70;99.90
9033;DHT22;4551;53.164;8.210;2022-11-15T13:50:10;17.70;99.90
9033;DHT22;4551;53.164;8.210;2022-11-15T13:52:40;17.70;99.90
9033;DHT22;4551;53.164;8.210;2022-11-15T13:55:11;17.60;99.90
9033;DHT22;4551;53.164;8.210;2022-11-15T13:57:41;17.50;99.90
9033;DHT22;4551;53.164;8.210;2022-11-15T14:00:24;17.40;99.90
9033;DHT22;4551;53.164;8.210;2022-11-15T14:02:52;17.40;99.90
9033;DHT22;4551;53.164;8.210;2022-11-15T14:05:22;17.20;99.90
9033;DHT22;4551;53.164;8.210;2022-11-15T14:07:55;17.00;99.90
9033;DHT22;4551;53.164;8.210;2022-11-15T14:10:30;17.00;99.90
9033;DHT22;4551;53.164;8.210;2022-11-15T14:12:59;17.00;99.90
9033;DHT22;4551;53.164;8.210;2022-11-15T14:15:28;17.00;99.90
9033;DHT22;4551;53.164;8.210;2022-11-15T14:17:57;17.00;99.90
9033;DHT22;4551;53.164;8.210;2022-11-15T14:20:29;17.00;99.90
9033;DHT22;4551;53.164;8.210;2022-11-15T14:23:01;17.00;99.90
9033;DHT22;4551;53.164;8.210;2022-11-15T14:25:29;17.00;99.90
9033;DHT22;4551;53.164;8.210;2022-11-15T14:28:08;16.90;99.90
9033;DHT22;4551;53.164;8.210;2022-11-15T14:30:36;16.90;99.90
9033;DHT22;4551;53.164;8.210;2022-11-15T14:33:14;16.90;99.90
9033;DHT22;4551;53.164;8.210;2022-11-15T14:35:44;16.80;99.90
9033;DHT22;4551;53.164;8.210;2022-11-15T14:38:14;16.80;99.90
9033;DHT22;4551;53.164;8.210;2022-11-15T14:40:42;16.70;99.90
9033;DHT22;4551;53.164;8.210;2022-11-15T14:43:11;16.60;99.90
9033;DHT22;4551;53.164;8.210;2022-11-15T14:45:39;16.50;99.90
9033;DHT22;4551;53.164;8.210;2022-11-15T14:48:07;16.50;99.90
9033;DHT22;4551;53.164;8.210;2022-11-15T14:50:35;16.30;99.90
9033;DHT22;4551;53.164;8.210;2022-11-15T14:53:04;16.30;99.90
9033;DHT22;4551;53.164;8.210;2022-11-15T14:55:35;16.20;99.90
9033;DHT22;4551;53.164;8.210;2022-11-15T14:58:03;16.00;99.90
9033;DHT22;4551;53.164;8.210;2022-11-15T15:00:31;15.90;99.90
9033;DHT22;4551;53.164;8.210;2022-11-15T15:03:01;15.80;99.90
9033;DHT22;4551;53.164;8.210;2022-11-15T15:05:30;15.70;99.90
9033;DHT22;4551;53.164;8.210;2022-11-15T15:07:59;15.60;99.90
9033;DHT22;4551;53.164;8.210;2022-11-15T15:10:27;15.40;99.90
9033;DHT22;4551;53.164;8.210;2022-11-15T15:13:10;15.50;99.90
9033;DHT22;4551;53.164;8.210;2022-11-15T15:15:42;15.20;99.90
9033;DHT22;4551;53.164;8.210;2022-11-15T15:18:10;15.10;99.90
9033;DHT22;4551;53.164;8.210;2022-11-15T15:20:39;15.00;99.90
9033;DHT22;4551;53.164;8.210;2022-11-15T15:23:09;14.90;99.90
9033;DHT22;4551;53.164;8.210;2022-11-15T15:25:42;14.80;99.90
9033;DHT22;4551;53.164;8.210;2022-11-15T15:28:11;14.70;99.90
9033;DHT22;4551;53.164;8.210;2022-11-15T15:30:39;14.60;99.90
9033;DHT22;4551;53.164;8.210;2022-11-15T15:33:07;14.50;99.90
9033;DHT22;4551;53.164;8.210;2022-11-15T15:35:42;14.40;99.90
9033;DHT22;4551;53.164;8.210;2022-11-15T15:38:10;14.30;99.90
9033;DHT22;4551;53.164;8.210;2022-11-15T15:40:38;14.20;99.90
9033;DHT22;4551;53.164;8.210;2022-11-15T15:43:07;14.10;99.90
9033;DHT22;4551;53.164;8.210;2022-11-15T15:45:37;14.00;99.90
9033;DHT22;4551;53.164;8.210;2022-11-15T15:48:07;13.90;99.90
9033;DHT22;4551;53.164;8.210;2022-11-15T15:50:36;13.80;99.90
9033;DHT22;4551;53.164;8.210;2022-11-15T15:53:04;13.70;99.90
9033;DHT22;4551;53.164;8.210;2022-11-15T15:55:34;13.60;99.90
9033;DHT22;4551;53.164;8.210;2022-11-15T15:58:02;13.50;99.90
9033;DHT22;4551;53.164;8.210;2022-11-15T16:00:31;13.50;99.90
9033;DHT22;4551;53.164;8.210;2022-11-15T16:03:01;13.40;99.90
9033;DHT22;4551;53.164;8.210;2022-11-15T16:05:29;13.30;99.90
9033;DHT22;4551;53.164;8.210;2022-11-15T16:07:57;13.10;99.90
9033;DHT22;4551;53.164;8.210;2022-11-15T16:10:26;13.20;99.90
9033;DHT22;4551;53.164;8.210;2022-11-15T16:12:55;13.20;99.90
9033;DHT22;4551;53.164;8.210;2022-11-15T16:15:24;13.10;99.90
9033;DHT22;4551;53.164;8.210;2022-11-15T16:17:53;13.10;99.90
9033;DHT22;4551;53.164;8.210;2022-11-15T16:20:25;13.00;99.90
9033;DHT22;4551;53.164;8.210;2022-11-15T16:22:55;12.90;99.90
9033;DHT22;4551;53.164;8.210;2022-11-15T16:25:23;12.90;99.90
9033;DHT22;4551;53.164;8.210;2022-11-15T16:27:51;12.80;99.90
9033;DHT22;4551;53.164;8.210;2022-11-15T16:30:20;12.70;99.90
9033;DHT22;4551;53.164;8.210;2022-11-15T16:32:48;12.60;99.90
9033;DHT22;4551;53.164;8.210;2022-11-15T16:35:17;12.60;99.90
9033;DHT22;4551;53.164;8.210;2022-11-15T16:37:47;12.60;99.90
9033;DHT22;4551;53.164;8.210;2022-11-15T16:40:26;12.50;99.90
9033;DHT22;4551;53.164;8.210;2022-11-15T16:42:54;12.50;99.90
9033;DHT22;4551;53.164;8.210;2022-11-15T16:45:23;12.40;99.90
9033;DHT22;4551;53.164;8.210;2022-11-15T16:47:52;12.40;99.90
9033;DHT22;4551;53.164;8.210;2022-11-15T16:50:20;12.30;99.90
9033;DHT22;4551;53.164;8.210;2022-11-15T16:52:51;12.30;99.90
9033;DHT22;4551;53.164;8.210;2022-11-15T16:55:20;12.20;99.90
9033;DHT22;4551;53.164;8.210;2022-11-15T16:57:48;12.20;99.90